Time;durP1;ratioP1;P1;durP2;ratioP2;P2;SDS_P1;SDS_P2;PMS_P1;PMS_P2;Temp;Humidity;BMP_temperature;BMP_pressure;BME280_temperature;BME280_humidity;BME280_pressure;Samples;Min_cycle;Max_cycle;Signal;HPM_P1;HPM_P2
2022/12/21 00:01:21;;;;;;;24.90;14.63;;;7.10;80.10;6.80;96359.00;;;;5087877;28;20214;-83
2022/12/21 00:03:54;;;;;;;23.87;14.00;;;7.00;80.10;6.80;96355.00;;;;5078546;28;20319;-84
2022/12/21 00:06:22;;;;;;;23.00;14.23;;;7.10;80.20;6.80;96353.00;;;;5073682;28;20571;-85
2022/12/21 00:08:52;;;;;;;24.00;13.57;;;7.10;80.20;6.80;96371.00;;;;5078061;28;20204;-84
2022/12/21 00:11:22;;;;;;;21.17;13.20;;;7.00;80.00;6.80;96377.00;;;;5075178;28;20276;-85
2022/12/21 00:13:50;;;;;;;23.53;13.37;;;7.00;80.10;6.80;96379.00;;;;5075229;28;20211;-85
2022/12/21 00:16:22;;;;;;;21.93;13.20;;;7.10;80.30;6.80;96388.00;;;;5072265;28;20211;-84
2022/12/21 00:18:51;;;;;;;22.83;13.43;;;7.00;80.10;6.80;96407.00;;;;5075501;28;20199;-84
2022/12/21 00:21:21;;;;;;;21.83;13.33;;;7.00;80.80;6.80;96406.00;;;;5073438;28;20290;-84
2022/12/21 00:23:51;;;;;;;21.83;13.93;;;7.00;79.90;6.80;96390.00;;;;5069491;28;20606;-84
2022/12/21 00:26:23;;;;;;;21.80;13.17;;;7.00;79.90;6.80;96371.00;;;;5074546;28;20234;-84
2022/12/21 00:28:53;;;;;;;24.73;14.43;;;7.00;80.00;6.70;96356.00;;;;5076225;28;20193;-86
2022/12/21 00:31:23;;;;;;;22.07;13.77;;;7.00;80.00;6.80;96345.00;;;;5077129;28;20208;-84
2022/12/21 00:33:53;;;;;;;23.40;12.73;;;7.00;80.00;6.80;96337.00;;;;5076013;28;20220;-86
2022/12/21 00:36:22;;;;;;;20.80;13.20;;;7.00;80.00;6.80;96330.00;;;;5077694;28;20215;-84
2022/12/21 00:38:50;;;;;;;20.80;13.13;;;7.00;80.00;6.70;96337.00;;;;5076505;28;20290;-84
2022/12/21 00:41:20;;;;;;;21.93;13.37;;;7.00;80.00;6.80;96353.00;;;;5075987;28;20282;-84
2022/12/21 00:43:49;;;;;;;21.47;12.70;;;7.00;80.30;6.80;96365.00;;;;5076785;28;20211;-84
2022/12/21 00:46:19;;;;;;;20.63;12.87;;;7.00;80.40;6.80;96368.00;;;;5077039;28;20240;-84
2022/12/21 00:48:47;;;;;;;22.17;13.93;;;7.00;80.40;6.80;96361.00;;;;5077979;28;20648;-84
2022/12/21 00:51:20;;;;;;;22.47;14.23;;;7.00;80.50;6.80;96372.00;;;;5078180;28;20209;-84
2022/12/21 00:53:48;;;;;;;22.63;13.77;;;7.00;80.40;6.80;96373.00;;;;5077186;28;20212;-84
2022/12/21 00:56:17;;;;;;;20.67;12.73;;;7.00;80.50;6.80;96370.00;;;;5078657;28;20685;-85
2022/12/21 00:58:44;;;;;;;24.63;13.77;;;7.00;80.50;6.80;96368.00;;;;5076675;28;20248;-84
2022/12/21 01:01:15;;;;;;;19.10;12.60;;;7.00;80.50;6.80;96366.00;;;;5078983;28;20195;-84
2022/12/21 01:03:43;;;;;;;21.97;12.53;;;7.00;80.60;6.90;96357.00;;;;5075334;28;20302;-84
2022/12/21 01:06:16;;;;;;;20.60;12.30;;;7.00;80.60;6.80;96361.00;;;;5079629;28;21046;-84
2022/12/21 01:08:43;;;;;;;22.00;13.07;;;7.00;80.80;6.80;96371.00;;;;5077678;28;20204;-83
2022/12/21 01:11:13;;;;;;;19.17;12.50;;;7.00;80.30;6.80;96369.00;;;;5076592;28;20206;-84
2022/12/21 01:13:41;;;;;;;20.27;12.57;;;7.00;80.50;6.80;96372.00;;;;5075702;28;20215;-84
2022/12/21 01:16:14;;;;;;;19.23;11.33;;;7.00;80.50;6.80;96367.00;;;;5077436;28;20231;-84
2022/12/21 01:18:41;;;;;;;20.00;12.23;;;7.10;80.50;6.80;96369.00;;;;5073024;28;20220;-85
2022/12/21 01:21:17;;;;;;;20.43;12.50;;;7.00;80.50;6.80;96368.00;;;;5076870;28;20204;-86
2022/12/21 01:23:48;;;;;;;21.03;12.37;;;7.10;80.40;6.80;96381.00;;;;5076434;28;20338;-86
2022/12/21 01:26:16;;;;;;;20.23;13.10;;;7.00;80.40;6.80;96378.00;;;;5077645;28;20231;-86
2022/12/21 01:28:44;;;;;;;20.83;13.20;;;7.00;80.40;6.80;96387.00;;;;5077642;28;20279;-84
2022/12/21 01:31:12;;;;;;;18.67;12.07;;;7.00;80.40;6.80;96389.00;;;;5076939;28;20886;-83
2022/12/21 01:33:39;;;;;;;23.33;14.07;;;7.00;80.40;6.80;96397.00;;;;5076861;28;20283;-84
2022/12/21 01:36:10;;;;;;;22.93;12.90;;;7.00;80.40;6.80;96401.00;;;;5078714;28;20203;-84
2022/12/21 01:38:41;;;;;;;24.47;13.33;;;7.00;80.30;6.80;96393.00;;;;5077391;28;20187;-85
2022/12/21 01:41:12;;;;;;;24.37;13.33;;;7.00;80.20;6.80;96391.00;;;;5073693;28;20640;-85
2022/12/21 01:43:44;;;;;;;25.20;12.63;;;7.00;80.40;6.80;96384.00;;;;5075579;28;20336;-85
2022/12/21 01:46:28;;;;;;;22.10;13.30;;;7.00;80.50;6.80;96387.00;;;;5077849;28;20223;-85
2022/12/21 01:49:05;;;;;;;20.00;12.73;;;7.00;80.40;6.80;96373.00;;;;5076928;28;20211;-84
2022/12/21 01:51:37;;;;;;;21.33;13.60;;;7.00;80.30;6.80;96367.00;;;;5076080;28;20291;-85
2022/12/21 01:54:13;;;;;;;20.80;12.33;;;7.00;80.40;6.80;96370.00;;;;5076948;28;20291;-84
2022/12/21 01:56:44;;;;;;;20.30;12.57;;;7.10;80.50;6.80;96354.00;;;;5076216;28;20231;-84
2022/12/21 01:59:19;;;;;;;19.37;12.03;;;7.00;80.60;6.80;96356.00;;;;5075865;28;20638;-84
2022/12/21 02:01:46;;;;;;;21.23;12.77;;;7.00;80.50;6.80;96363.00;;;;5075006;28;20729;-84
2022/12/21 02:04:14;;;;;;;18.60;12.07;;;7.00;80.50;6.80;96356.00;;;;5075659;28;20271;-84
2022/12/21 02:06:48;;;;;;;20.93;12.80;;;7.00;80.50;6.80;96359.00;;;;5077024;28;20731;-85
2022/12/21 02:09:18;;;;;;;23.03;13.23;;;7.00;80.60;6.80;96363.00;;;;5074776;28;20278;-84
2022/12/21 02:11:47;;;;;;;21.23;12.67;;;7.00;80.60;6.80;96368.00;;;;5073358;28;20204;-84
2022/12/21 02:14:16;;;;;;;20.57;12.60;;;7.00;80.70;6.90;96359.00;;;;5076961;28;20268;-84
2022/12/21 02:17:02;;;;;;;22.80;12.93;;;7.00;81.50;6.90;96357.00;;;;5074360;28;20758;-85
2022/12/21 02:20:33;;;;;;;18.87;12.27;;;7.10;80.80;6.90;96349.00;;;;5073014;28;20711;-86
2022/12/21 02:23:41;;;;;;;19.53;12.23;;;7.10;80.40;6.90;96342.00;;;;5045297;28;20237;-84
2022/12/21 02:26:46;;;;;;;16.63;11.17;;;7.10;80.50;7.00;96345.00;;;;5042452;28;20315;-85
2022/12/21 02:29:59;;;;;;;19.50;11.37;;;7.10;80.60;7.00;96348.00;;;;5077316;28;20198;-86
2022/12/21 02:32:47;;;;;;;17.53;11.20;;;7.10;80.70;7.00;96345.00;;;;5050673;28;20219;-83
2022/12/21 02:35:42;;;;;;;19.37;11.83;;;7.20;80.80;7.00;96346.00;;;;5074669;28;20647;-84
2022/12/21 02:38:34;;;;;;;19.10;11.40;;;7.20;80.80;7.00;96347.00;;;;5075974;28;20206;-84
2022/12/21 02:41:09;;;;;;;19.50;11.37;;;7.20;80.70;7.00;96339.00;;;;5075325;28;20188;-84
2022/12/21 02:46:39;;;;;;;19.20;12.10;;;7.20;80.80;7.00;96340.00;;;;5076460;28;20699;-85
2022/12/21 02:49:15;;;;;;;17.13;11.10;;;7.20;80.80;7.00;96326.00;;;;5075872;28;20300;-84
2022/12/21 02:51:50;;;;;;;19.17;11.80;;;7.20;80.90;7.00;96345.00;;;;5083544;28;20196;-87
2022/12/21 02:54:18;;;;;;;19.10;11.53;;;7.20;80.90;7.10;96345.00;;;;5085194;28;20257;-83
2022/12/21 02:56:45;;;;;;;18.20;11.60;;;7.20;80.80;7.10;96353.00;;;;5080383;28;20203;-84
2022/12/21 02:59:19;;;;;;;19.77;11.60;;;7.20;80.90;7.10;96354.00;;;;5081000;28;20195;-84
2022/12/21 03:02:40;;;;;;;15.63;10.67;;;7.20;81.00;7.10;96379.00;;;;5079154;28;20281;-85
2022/12/21 03:05:34;;;;;;;17.30;10.97;;;7.30;80.80;7.10;96379.00;;;;5080893;28;20698;-84
2022/12/21 03:08:16;;;;;;;21.13;11.70;;;7.30;80.90;7.10;96379.00;;;;5077829;28;20602;-84
2022/12/21 03:10:59;;;;;;;16.63;11.27;;;7.30;80.90;7.10;96375.00;;;;5080094;28;20203;-84
2022/12/21 03:13:39;;;;;;;21.63;12.93;;;7.30;80.90;7.10;96389.00;;;;5079112;28;20223;-88
2022/12/21 03:16:18;;;;;;;19.53;11.93;;;7.30;80.80;7.10;96389.00;;;;5077949;28;20628;-84
2022/12/21 03:18:59;;;;;;;17.90;11.87;;;7.30;80.80;7.10;96390.00;;;;5080563;28;20238;-85
2022/12/21 03:21:38;;;;;;;18.10;11.97;;;7.30;81.00;7.10;96389.00;;;;5076872;28;20221;-83
2022/12/21 03:24:15;;;;;;;18.23;11.27;;;7.30;81.10;7.10;96385.00;;;;5079449;28;20209;-84
2022/12/21 03:26:50;;;;;;;20.70;12.80;;;7.20;81.10;7.10;96383.00;;;;5079309;28;20786;-86
2022/12/21 03:29:24;;;;;;;17.67;11.60;;;7.30;81.30;7.10;96374.00;;;;5078747;28;20639;-84
2022/12/21 03:31:56;;;;;;;19.03;11.60;;;7.30;81.40;7.10;96374.00;;;;5076530;28;20279;-84
2022/12/21 03:34:30;;;;;;;17.90;11.57;;;7.30;81.40;7.10;96374.00;;;;5079775;28;20688;-84
2022/12/21 03:37:06;;;;;;;21.07;11.80;;;7.30;81.30;7.10;96380.00;;;;5077710;28;20195;-85
2022/12/21 03:39:41;;;;;;;16.73;11.10;;;7.30;81.20;7.10;96373.00;;;;5079424;28;20286;-83
2022/12/21 03:42:17;;;;;;;18.57;11.70;;;7.30;81.30;7.10;96368.00;;;;5079619;28;20250;-83
2022/12/21 03:44:52;;;;;;;16.43;10.70;;;7.30;81.40;7.10;96372.00;;;;5079903;28;20199;-85
2022/12/21 03:47:27;;;;;;;17.70;10.70;;;7.30;81.40;7.10;96372.00;;;;5078458;28;20317;-83
2022/12/21 03:50:00;;;;;;;17.73;11.60;;;7.30;81.50;7.20;96371.00;;;;5077540;28;20198;-85
2022/12/21 03:52:35;;;;;;;18.37;11.43;;;7.30;81.60;7.20;96356.00;;;;5077585;28;20588;-84
2022/12/21 03:55:11;;;;;;;17.70;11.93;;;7.30;81.60;7.20;96357.00;;;;5078544;28;20199;-84
2022/12/21 03:57:39;;;;;;;17.90;10.93;;;7.30;81.70;7.20;96347.00;;;;5079590;28;20201;-83
2022/12/21 04:00:11;;;;;;;16.53;10.90;;;7.40;81.70;7.20;96347.00;;;;5078156;28;20203;-84
2022/12/21 04:02:50;;;;;;;20.17;11.83;;;7.40;81.50;7.20;96350.00;;;;5078135;28;20235;-84
2022/12/21 04:05:25;;;;;;;19.50;11.53;;;7.30;81.40;7.20;96357.00;;;;5075964;28;20286;-84
2022/12/21 04:07:55;;;;;;;17.63;10.93;;;7.40;81.40;7.20;96354.00;;;;5077746;28;20266;-84
2022/12/21 04:10:25;;;;;;;20.27;11.37;;;7.40;81.30;7.20;96353.00;;;;5078349;28;20207;-86
2022/12/21 04:12:52;;;;;;;15.87;10.30;;;7.40;81.50;7.20;96345.00;;;;5079463;28;20306;-84
2022/12/21 04:16:02;;;;;;;17.70;11.50;;;7.40;81.40;7.20;96352.00;;;;5076753;28;21093;-85
2022/12/21 04:18:10;;;;;;;20.17;12.20;;;7.40;81.40;7.20;96352.00;;;;5081433;28;20235;-85
2022/12/21 04:20:36;;;;;;;16.77;10.80;;;7.40;81.40;7.20;96342.00;;;;5075714;28;20556;-86
2022/12/21 04:28:34;;;;;;;16.43;10.63;;;7.40;81.40;7.20;96354.00;;;;5072615;28;20249;-84
2022/12/21 04:31:02;;;;;;;18.23;10.40;;;7.30;81.50;7.20;96345.00;;;;5075365;28;20259;-84
2022/12/21 04:33:31;;;;;;;17.73;11.03;;;7.40;81.60;7.20;96337.00;;;;5070292;28;20596;-86
2022/12/21 04:38:46;;;;;;;20.87;12.27;;;7.40;81.40;7.20;96346.00;;;;5075906;28;20264;-84
2022/12/21 04:41:13;;;;;;;20.00;11.93;;;7.40;81.50;7.20;96354.00;;;;5077710;28;20207;-84
2022/12/21 04:43:42;;;;;;;18.97;11.03;;;7.30;81.40;7.20;96352.00;;;;5074654;28;20212;-84
2022/12/21 04:46:12;;;;;;;17.80;11.47;;;7.40;81.40;7.20;96354.00;;;;5078347;28;20406;-86
2022/12/21 04:48:40;;;;;;;19.00;11.50;;;7.40;81.40;7.20;96344.00;;;;5078209;28;21783;-84
2022/12/21 04:51:09;;;;;;;18.90;11.70;;;7.40;81.30;7.20;96349.00;;;;5077737;28;20207;-87
2022/12/21 04:53:37;;;;;;;16.53;10.73;;;7.40;81.30;7.20;96355.00;;;;5078673;28;20669;-85
2022/12/21 04:56:07;;;;;;;18.33;11.83;;;7.40;81.30;7.20;96347.00;;;;5076672;28;20215;-85
2022/12/21 04:58:34;;;;;;;16.23;10.53;;;7.40;81.40;7.20;96346.00;;;;5078621;28;20260;-85
2022/12/21 05:01:08;;;;;;;18.20;11.00;;;7.40;81.40;7.20;96345.00;;;;5076404;28;20246;-84
2022/12/21 05:03:35;;;;;;;19.00;12.10;;;7.30;81.30;7.20;96347.00;;;;5075329;28;20247;-85
2022/12/21 05:06:03;;;;;;;19.67;12.30;;;7.40;81.40;7.20;96347.00;;;;5076536;28;20215;-84
2022/12/21 05:08:30;;;;;;;16.23;10.83;;;7.30;81.40;7.20;96347.00;;;;5077977;28;21767;-85
2022/12/21 05:11:10;;;;;;;17.43;11.17;;;7.30;81.40;7.20;96357.00;;;;5078975;28;20286;-87
2022/12/21 05:13:38;;;;;;;18.83;11.77;;;7.40;81.40;7.20;96341.00;;;;5077395;28;20219;-84
2022/12/21 05:16:07;;;;;;;16.73;11.37;;;7.40;81.60;7.20;96345.00;;;;5077932;28;20211;-84
2022/12/21 05:18:35;;;;;;;19.80;11.30;;;7.40;81.60;7.20;96347.00;;;;5076535;28;20279;-86
2022/12/21 05:21:02;;;;;;;17.93;11.40;;;7.40;81.60;7.20;96344.00;;;;5077716;28;20273;-84
2022/12/21 05:23:29;;;;;;;21.00;11.80;;;7.40;81.60;7.20;96340.00;;;;5076366;28;20259;-84
2022/12/21 05:25:56;;;;;;;19.80;11.73;;;7.40;81.60;7.20;96339.00;;;;5075520;28;20231;-84
2022/12/21 05:28:25;;;;;;;17.47;11.23;;;7.40;81.70;7.30;96345.00;;;;5077530;28;20283;-86
2022/12/21 05:30:52;;;;;;;17.73;10.97;;;7.40;81.70;7.20;96339.00;;;;5076879;28;20287;-84
2022/12/21 05:33:19;;;;;;;16.47;11.03;;;7.40;81.70;7.30;96343.00;;;;5074304;28;20246;-83
2022/12/21 05:35:46;;;;;;;19.70;10.90;;;7.40;81.70;7.20;96334.00;;;;5076194;28;21183;-86
2022/12/21 05:38:13;;;;;;;17.87;11.00;;;7.40;81.70;7.20;96341.00;;;;5077270;28;20739;-84
2022/12/21 05:40:40;;;;;;;20.73;11.60;;;7.50;81.80;7.30;96335.00;;;;5076803;28;20290;-85
2022/12/21 05:43:08;;;;;;;15.73;10.13;;;7.40;81.80;7.30;96336.00;;;;5075291;28;20215;-85
2022/12/21 05:45:36;;;;;;;15.73;10.50;;;7.40;81.70;7.20;96342.00;;;;5075439;28;20730;-88
2022/12/21 05:48:03;;;;;;;18.97;11.80;;;7.40;81.80;7.30;96338.00;;;;5075047;28;20210;-86
2022/12/21 05:50:30;;;;;;;17.90;11.43;;;7.40;81.60;7.30;96339.00;;;;5076332;28;20285;-84
2022/12/21 05:52:57;;;;;;;18.60;12.00;;;7.40;81.70;7.30;96341.00;;;;5077028;28;20225;-87
2022/12/21 05:55:25;;;;;;;18.30;12.20;;;7.40;81.70;7.30;96341.00;;;;5076504;28;20280;-84
2022/12/21 05:57:52;;;;;;;18.87;11.70;;;7.40;81.80;7.30;96338.00;;;;5076752;28;20210;-85
2022/12/21 06:00:20;;;;;;;19.20;11.77;;;7.40;81.90;7.30;96343.00;;;;5076945;28;20290;-84
2022/12/21 06:02:51;;;;;;;17.47;11.10;;;7.40;81.80;7.30;96354.00;;;;5075910;28;20220;-84
2022/12/21 06:05:18;;;;;;;17.90;11.40;;;7.40;81.60;7.30;96345.00;;;;5077043;28;20222;-84
2022/12/21 06:07:45;;;;;;;15.33;10.97;;;7.40;81.60;7.30;96345.00;;;;5077792;28;20223;-84
2022/12/21 06:10:13;;;;;;;18.50;11.53;;;7.40;81.60;7.30;96346.00;;;;5077258;28;20284;-85
2022/12/21 06:12:40;;;;;;;18.50;12.03;;;7.40;81.70;7.30;96347.00;;;;5076619;28;20331;-87
2022/12/21 06:15:08;;;;;;;20.57;13.20;;;7.40;81.60;7.30;96356.00;;;;5075518;28;20267;-85
2022/12/21 06:17:35;;;;;;;19.77;12.37;;;7.40;81.70;7.20;96349.00;;;;5075736;28;20214;-84
2022/12/21 06:20:05;;;;;;;20.97;11.87;;;7.40;81.90;7.20;96341.00;;;;5075546;28;20294;-84
2022/12/21 06:22:34;;;;;;;18.73;11.67;;;7.40;81.70;7.20;96348.00;;;;5076957;28;20713;-84
2022/12/21 06:25:02;;;;;;;22.33;11.53;;;7.40;81.80;7.20;96349.00;;;;5076094;28;20287;-86
2022/12/21 06:27:29;;;;;;;19.10;12.00;;;7.40;82.00;7.20;96350.00;;;;5081776;28;20229;-84
2022/12/21 06:29:56;;;;;;;19.37;11.87;;;7.40;82.00;7.20;96357.00;;;;5080775;28;20210;-86
2022/12/21 06:32:23;;;;;;;19.13;11.83;;;7.30;82.10;7.20;96347.00;;;;5081969;28;20222;-84
2022/12/21 06:34:50;;;;;;;17.73;11.30;;;7.30;82.30;7.10;96358.00;;;;5082787;28;20199;-87
2022/12/21 06:37:19;;;;;;;23.93;12.53;;;7.30;82.40;7.20;96347.00;;;;5083472;28;20210;-84
2022/12/21 06:39:46;;;;;;;20.00;11.63;;;7.30;82.30;7.20;96354.00;;;;5083077;28;20198;-87
2022/12/21 06:42:13;;;;;;;17.40;11.00;;;7.30;82.30;7.20;96345.00;;;;5084972;28;20302;-88
2022/12/21 06:44:40;;;;;;;18.60;11.60;;;7.30;82.30;7.20;96348.00;;;;5082263;28;20650;-88
2022/12/21 06:47:07;;;;;;;18.27;11.73;;;7.30;82.30;7.30;96353.00;;;;5080389;28;20319;-87
2022/12/21 06:49:34;;;;;;;24.40;11.97;;;7.30;82.40;7.30;96356.00;;;;5082145;28;20234;-87
2022/12/21 06:52:01;;;;;;;16.50;11.17;;;7.30;82.50;7.30;96357.00;;;;5081087;28;20212;-87
2022/12/21 06:54:30;;;;;;;21.03;11.63;;;7.30;82.60;7.40;96343.00;;;;5081625;28;20310;-87
2022/12/21 06:56:57;;;;;;;20.27;12.13;;;7.40;82.60;7.40;96349.00;;;;5081396;28;20206;-87
2022/12/21 06:59:24;;;;;;;18.07;11.30;;;7.40;82.60;7.40;96358.00;;;;5081516;28;20235;-87
2022/12/21 07:01:51;;;;;;;22.70;11.50;;;7.30;82.60;7.40;96356.00;;;;5081799;28;20218;-87
2022/12/21 07:04:18;;;;;;;18.20;11.67;;;7.40;82.60;7.40;96344.00;;;;5080568;28;20225;-87
2022/12/21 07:06:45;;;;;;;21.40;12.83;;;7.40;82.70;7.40;96350.00;;;;5079728;28;21066;-87
2022/12/21 07:09:13;;;;;;;19.40;11.83;;;7.40;82.80;7.40;96361.00;;;;5081397;28;20285;-89
2022/12/21 07:11:42;;;;;;;20.57;12.33;;;7.40;82.80;7.40;96345.00;;;;5081094;28;20291;-87
2022/12/21 07:14:09;;;;;;;19.97;12.10;;;7.40;82.70;7.40;96350.00;;;;5080809;28;20204;-87
2022/12/21 07:16:36;;;;;;;18.77;11.10;;;7.30;82.60;7.40;96344.00;;;;5081421;28;20314;-88
2022/12/21 07:19:03;;;;;;;18.10;11.83;;;7.40;82.60;7.40;96352.00;;;;5080380;28;20199;-87
2022/12/21 07:21:30;;;;;;;19.03;11.63;;;7.40;82.70;7.40;96352.00;;;;5082099;28;20559;-87
2022/12/21 07:23:57;;;;;;;16.63;10.80;;;7.40;82.70;7.40;96354.00;;;;5081411;28;20702;-87
2022/12/21 07:26:25;;;;;;;17.50;11.63;;;7.40;82.70;7.40;96354.00;;;;5081019;28;20280;-89
2022/12/21 07:28:56;;;;;;;18.90;11.63;;;7.40;82.80;7.50;96354.00;;;;5075562;28;20232;-87
2022/12/21 07:31:27;;;;;;;17.63;10.87;;;7.50;82.80;7.50;96356.00;;;;5078996;28;20228;-87
2022/12/21 07:33:54;;;;;;;16.07;9.80;;;7.40;82.70;7.50;96359.00;;;;5082540;28;20218;-87
2022/12/21 07:36:22;;;;;;;19.27;11.20;;;7.40;82.60;7.50;96360.00;;;;5079450;28;20294;-87
2022/12/21 07:38:49;;;;;;;16.90;11.43;;;7.40;82.70;7.50;96358.00;;;;5077482;28;20639;-87
2022/12/21 07:41:18;;;;;;;19.43;11.60;;;7.50;82.80;7.50;96365.00;;;;5076540;28;21028;-89
2022/12/21 07:43:47;;;;;;;18.63;11.63;;;7.50;82.70;7.50;96360.00;;;;5077362;28;21467;-87
2022/12/21 07:46:17;;;;;;;16.73;10.70;;;7.50;82.70;7.50;96363.00;;;;5077499;28;20258;-88
2022/12/21 07:48:44;;;;;;;18.70;11.20;;;7.50;82.70;7.50;96368.00;;;;5077680;28;20203;-88
2022/12/21 07:51:11;;;;;;;20.07;11.17;;;7.50;82.70;7.50;96357.00;;;;5077925;28;20744;-88
2022/12/21 07:53:39;;;;;;;16.10;11.13;;;7.50;82.80;7.60;96366.00;;;;5077777;28;20305;-86
2022/12/21 07:56:13;;;;;;;18.43;12.13;;;7.50;82.90;7.60;96365.00;;;;5074558;28;20849;-87
2022/12/21 07:58:40;;;;;;;25.77;16.70;;;7.50;82.90;7.60;96369.00;;;;5073671;28;20215;-87
2022/12/21 08:01:10;;;;;;;26.27;16.80;;;7.50;82.90;7.60;96363.00;;;;5075459;28;20250;-87
2022/12/21 08:03:41;;;;;;;31.17;19.57;;;7.50;83.00;7.60;96366.00;;;;5075912;28;20250;-88
2022/12/21 08:06:10;;;;;;;25.40;16.33;;;7.50;82.90;7.60;96359.00;;;;5077785;28;20208;-86
2022/12/21 08:08:39;;;;;;;29.70;17.50;;;7.60;83.10;7.60;96366.00;;;;5077462;28;20246;-86
2022/12/21 08:11:12;;;;;;;23.70;15.53;;;7.60;83.10;7.60;96373.00;;;;5077539;28;20218;-87
2022/12/21 08:13:41;;;;;;;22.80;14.90;;;7.60;83.10;7.70;96365.00;;;;5076657;28;20794;-86
2022/12/21 08:16:11;;;;;;;24.07;13.57;;;7.60;83.20;7.70;96368.00;;;;5079453;28;20195;-87
2022/12/21 08:18:39;;;;;;;25.17;16.00;;;7.60;83.20;7.70;96368.00;;;;5079547;28;20318;-87
2022/12/21 08:21:07;;;;;;;21.97;13.93;;;7.60;83.20;7.70;96368.00;;;;5078210;28;20332;-87
2022/12/21 08:23:34;;;;;;;25.20;14.60;;;7.70;83.20;7.70;96355.00;;;;5077735;28;21280;-87
2022/12/21 08:26:02;;;;;;;21.70;14.27;;;7.70;83.20;7.70;96361.00;;;;5078150;28;21053;-86
2022/12/21 08:28:29;;;;;;;21.00;13.93;;;7.60;83.10;7.80;96363.00;;;;5078311;28;20717;-88
2022/12/21 08:31:05;;;;;;;19.63;13.63;;;7.70;83.20;7.80;96357.00;;;;5078610;28;20203;-87
2022/12/21 08:33:32;;;;;;;20.70;12.50;;;7.70;83.30;7.80;96359.00;;;;5077235;28;20219;-86
2022/12/21 08:36:01;;;;;;;18.77;12.70;;;7.70;83.30;7.80;96356.00;;;;5080257;28;20199;-87
2022/12/21 08:38:28;;;;;;;20.83;13.23;;;7.70;83.40;7.90;96369.00;;;;5079636;28;20208;-87
2022/12/21 08:41:01;;;;;;;18.50;12.60;;;7.80;83.50;7.90;96370.00;;;;5077708;28;20204;-86
2022/12/21 08:43:28;;;;;;;19.00;12.73;;;7.80;83.50;7.90;96362.00;;;;5077934;28;20302;-87
2022/12/21 08:45:55;;;;;;;17.57;11.40;;;7.90;83.60;7.90;96364.00;;;;5078095;28;20283;-87
2022/12/21 08:48:23;;;;;;;20.70;12.10;;;7.80;83.60;8.00;96358.00;;;;5077701;28;20499;-87
2022/12/21 08:50:51;;;;;;;17.77;12.00;;;7.90;83.70;8.00;96363.00;;;;5077214;28;20195;-87
2022/12/21 08:53:20;;;;;;;20.97;12.30;;;7.90;83.70;8.00;96356.00;;;;5076915;28;20219;-87
2022/12/21 08:55:48;;;;;;;19.67;12.50;;;8.00;83.60;8.00;96360.00;;;;5077424;28;20761;-87
2022/12/21 08:58:16;;;;;;;18.23;11.87;;;8.00;83.70;8.10;96368.00;;;;5077749;28;20207;-86
2022/12/21 09:00:45;;;;;;;18.53;11.73;;;8.00;83.60;8.10;96365.00;;;;5078513;28;20203;-87
2022/12/21 09:03:12;;;;;;;17.37;10.53;;;8.00;83.50;8.10;96363.00;;;;5076341;28;20336;-87
2022/12/21 09:05:40;;;;;;;19.27;11.67;;;8.00;83.60;8.10;96369.00;;;;5077562;28;20207;-86
2022/12/21 09:08:08;;;;;;;17.90;10.97;;;8.10;83.70;8.20;96367.00;;;;5078402;28;20228;-87
2022/12/21 09:10:36;;;;;;;14.53;10.80;;;8.10;83.70;8.20;96364.00;;;;5076985;28;20282;-86
2022/12/21 09:13:03;;;;;;;21.90;11.70;;;8.10;83.70;8.30;96368.00;;;;5077787;28;20252;-86
2022/12/21 09:15:31;;;;;;;21.47;11.87;;;8.10;83.70;8.30;96367.00;;;;5075441;28;20330;-86
2022/12/21 09:17:58;;;;;;;17.60;11.97;;;8.20;83.70;8.40;96361.00;;;;5075242;28;20314;-89
2022/12/21 09:20:25;;;;;;;17.93;10.33;;;8.20;83.80;8.40;96364.00;;;;5074488;28;20206;-87
2022/12/21 09:22:52;;;;;;;19.73;11.70;;;8.40;83.80;8.40;96366.00;;;;5072641;28;20306;-87
2022/12/21 09:25:19;;;;;;;20.77;11.57;;;8.30;83.80;8.40;96368.00;;;;5070386;28;20239;-86
2022/12/21 09:27:48;;;;;;;24.80;12.37;;;8.30;83.80;8.50;96378.00;;;;5073076;28;20223;-88
2022/12/21 09:30:15;;;;;;;17.80;10.97;;;8.30;83.70;8.50;96362.00;;;;5071467;28;20290;-86
2022/12/21 09:32:42;;;;;;;18.23;11.73;;;8.40;83.70;8.50;96365.00;;;;5074255;28;20310;-88
2022/12/21 09:35:10;;;;;;;15.67;10.60;;;8.40;83.70;8.60;96360.00;;;;5074530;28;20816;-87
2022/12/21 09:37:40;;;;;;;15.30;10.37;;;8.40;83.60;8.60;96365.00;;;;5075418;28;20207;-87
2022/12/21 09:40:12;;;;;;;19.00;11.47;;;8.40;83.70;8.60;96358.00;;;;5077389;28;20211;-86
2022/12/21 09:42:55;;;;;;;20.43;11.70;;;8.50;83.90;8.60;96358.00;;;;5074352;28;20237;-89
2022/12/21 09:45:30;;;;;;;18.50;11.60;;;8.50;83.80;8.70;96348.00;;;;5075925;28;20196;-88
2022/12/21 09:48:03;;;;;;;17.47;11.00;;;8.50;83.90;8.70;96355.00;;;;5076480;28;20258;-86
2022/12/21 09:50:39;;;;;;;18.97;12.40;;;8.60;83.90;8.80;96350.00;;;;5077174;28;20200;-86
2022/12/21 09:53:19;;;;;;;21.43;12.27;;;8.60;83.80;8.80;96339.00;;;;5078116;28;20222;-87
2022/12/21 09:55:53;;;;;;;20.00;11.80;;;8.60;83.50;8.80;96339.00;;;;5076402;28;21214;-88
2022/12/21 09:58:26;;;;;;;22.30;12.73;;;8.70;83.50;8.80;96338.00;;;;5076082;28;20561;-87
2022/12/21 10:01:12;;;;;;;15.70;10.40;;;8.70;83.40;8.90;96341.00;;;;5075504;28;20223;-87
2022/12/21 10:04:18;;;;;;;17.00;10.43;;;8.70;83.30;8.90;96332.00;;;;5077411;28;20226;-88
2022/12/21 10:07:18;;;;;;;15.87;9.53;;;8.70;83.00;8.90;96337.00;;;;5077145;28;20230;-88
2022/12/21 10:10:04;;;;;;;16.27;10.17;;;8.80;83.10;8.90;96332.00;;;;5075820;28;20204;-88
2022/12/21 10:12:43;;;;;;;16.73;9.93;;;8.80;83.20;8.90;96330.00;;;;5075818;28;20281;-88
2022/12/21 10:15:26;;;;;;;15.73;10.07;;;8.80;83.30;9.00;96328.00;;;;5074722;28;20227;-88
2022/12/21 10:18:07;;;;;;;15.57;10.17;;;8.80;83.20;9.00;96323.00;;;;5076109;28;20210;-88
2022/12/21 10:20:51;;;;;;;13.53;10.23;;;8.80;83.30;9.00;96329.00;;;;5075176;28;20237;-87
2022/12/21 10:23:24;;;;;;;16.10;10.07;;;8.90;83.30;9.00;96318.00;;;;5074327;28;20298;-88
2022/12/21 10:25:57;;;;;;;17.50;11.27;;;8.90;83.50;9.10;96327.00;;;;5075439;28;20571;-87
2022/12/21 10:28:38;;;;;;;15.90;10.57;;;9.00;83.70;9.10;96333.00;;;;5076276;28;20204;-87
2022/12/21 10:31:09;;;;;;;18.07;10.37;;;9.00;83.60;9.20;96343.00;;;;5077252;28;20210;-87
2022/12/21 10:33:41;;;;;;;14.67;10.20;;;9.00;83.50;9.20;96336.00;;;;5077206;28;20331;-87
2022/12/21 10:36:17;;;;;;;15.23;10.63;;;9.00;83.50;9.30;96345.00;;;;5077979;28;20200;-87
2022/12/21 10:38:45;;;;;;;15.87;10.57;;;9.10;83.50;9.30;96351.00;;;;5074778;28;20291;-87
2022/12/21 10:41:19;;;;;;;18.33;11.47;;;9.10;83.60;9.40;96342.00;;;;5076494;28;20686;-87
2022/12/21 10:43:50;;;;;;;17.23;10.63;;;9.10;83.80;9.40;96342.00;;;;5078405;28;20225;-87
2022/12/21 10:46:21;;;;;;;16.67;11.20;;;9.20;83.90;9.50;96332.00;;;;5076502;28;20207;-87
2022/12/21 10:48:56;;;;;;;18.30;11.50;;;9.20;84.00;9.50;96329.00;;;;5076025;28;20223;-87
2022/12/21 10:51:32;;;;;;;21.07;11.83;;;9.30;84.20;9.60;96332.00;;;;5076670;28;20289;-87
2022/12/21 10:54:03;;;;;;;20.67;12.47;;;9.30;84.20;9.60;96326.00;;;;5078016;28;20230;-87
2022/12/21 10:56:35;;;;;;;14.63;9.33;;;9.40;84.20;9.70;96323.00;;;;5077357;28;20199;-87
2022/12/21 10:59:14;;;;;;;15.80;11.00;;;9.40;84.40;9.80;96316.00;;;;5076255;28;20610;-87
2022/12/21 11:01:43;;;;;;;17.13;10.50;;;9.50;84.40;9.90;96314.00;;;;5074760;28;20293;-87
2022/12/21 11:04:15;;;;;;;16.20;10.53;;;9.60;84.50;9.90;96315.00;;;;5076098;28;20199;-87
2022/12/21 11:06:58;;;;;;;16.20;10.70;;;9.70;84.60;10.00;96315.00;;;;5076737;28;20663;-87
2022/12/21 11:09:39;;;;;;;16.27;10.87;;;9.70;84.20;10.10;96318.00;;;;5075652;28;21089;-87
2022/12/21 11:12:20;;;;;;;19.07;11.83;;;9.80;84.50;10.10;96313.00;;;;5077230;28;20310;-86
2022/12/21 11:14:48;;;;;;;19.03;11.80;;;9.80;84.40;10.20;96310.00;;;;5080702;28;20241;-86
2022/12/21 11:17:22;;;;;;;18.70;12.90;;;9.90;84.60;10.20;96303.00;;;;5082371;28;20199;-88
2022/12/21 11:20:00;;;;;;;18.23;11.70;;;10.00;84.40;10.30;96315.00;;;;5082433;28;20301;-87
2022/12/21 11:22:30;;;;;;;19.73;12.37;;;10.00;84.50;10.40;96310.00;;;;5080438;28;20225;-87
2022/12/21 11:25:00;;;;;;;19.67;12.83;;;10.10;84.40;10.40;96311.00;;;;5082593;28;20579;-87
2022/12/21 11:27:31;;;;;;;19.97;12.33;;;10.10;84.30;10.50;96302.00;;;;5082364;28;20207;-86